Terminal Aerodrome Forecast
Issued by NWS

Home | Current Version | Previous Version | Text Only | Print | Product List | Glossary On
Versions: 1 2 3 4 5 6 7 8 9 10 11 12 13 14 15 16 17 18 19 20 21 22 23 24 25 26 27 28
000
FTUS41 KBUF 020900 AAA
TAFIAG
TAF AMD
KIAG 020940Z 0210/0306 21008KT P6SM SCT030
     FM021500 23010KT P6SM VCSH BKN050
     FM021700 23010KT 6SM -SHRA OVC050
     FM021800 24010KT 6SM -SHRA VCTS OVC050CB
     FM022000 25010KT P6SM VCSH BKN120
     FM022200 24009KT P6SM BKN200
     FM030200 24005KT P6SM SCT250=

USA.gov is the U.S. government's official web portal to all federal, state and local government web resources and services.